Terminal Aerodrome Forecast
Issued by NWS

Home | Current Version | Previous Version | Text Only | Print | Product List | Glossary On
Versions: 1 2 3 4 5 6 7 8 9 10 11 12 13
000
FTUS46 KSGX 021141
TAFPSP
TAF
KPSP 021141Z 0212/0312 VRB05KT P6SM VCSH SCT025 OVC035
     FM022000 32010KT P6SM SCT040 BKN050
     FM030000 35007KT P6SM SCT050=

USA.gov is the U.S. government's official web portal to all federal, state and local government web resources and services.